createdAt,value
2022-09-06T00:01:12.243Z,6.70
2022-09-06T00:03:40.643Z,6.70
2022-09-06T00:06:10.585Z,7.83
2022-09-06T00:08:40.460Z,6.80
2022-09-06T00:11:08.665Z,6.20
2022-09-06T00:13:37.052Z,6.72
2022-09-06T00:16:09.528Z,7.10
2022-09-06T00:18:37.622Z,7.18
2022-09-06T00:21:06.124Z,5.97
2022-09-06T00:23:33.653Z,6.30
2022-09-06T00:26:06.373Z,6.90
2022-09-06T00:28:33.958Z,7.30
2022-09-06T00:31:09.635Z,7.47
2022-09-06T00:33:37.372Z,6.67
2022-09-06T00:36:04.909Z,6.80
2022-09-06T00:38:32.697Z,7.80
2022-09-06T00:41:00.461Z,7.53
2022-09-06T00:43:29.494Z,6.90
2022-09-06T00:45:57.349Z,7.23
2022-09-06T00:48:25.540Z,6.80
2022-09-06T00:50:56.687Z,6.88
2022-09-06T00:53:24.866Z,7.93
2022-09-06T00:55:53.219Z,7.47
2022-09-06T00:58:20.920Z,6.80
2022-09-06T01:00:49.824Z,6.23
2022-09-06T01:03:19.048Z,6.47
2022-09-06T01:05:57.875Z,6.90
2022-09-06T01:08:39.819Z,7.17
2022-09-06T01:11:21.460Z,7.30
2022-09-06T01:13:56.717Z,7.10
2022-09-06T01:16:36.195Z,6.90
2022-09-06T01:19:26.564Z,6.77
2022-09-06T01:22:02.370Z,6.27
2022-09-06T01:24:45.419Z,8.17
2022-09-06T01:27:41.163Z,6.47
2022-09-06T01:30:12.813Z,6.90
2022-09-06T01:32:49.312Z,6.97
2022-09-06T01:35:24.910Z,7.60
2022-09-06T01:37:52.544Z,7.57
2022-09-06T01:40:20.110Z,7.37
2022-09-06T01:42:49.414Z,7.50
2022-09-06T01:45:21.184Z,7.17
2022-09-06T01:48:00.218Z,7.60
2022-09-06T01:50:43.397Z,7.70
2022-09-06T01:53:23.549Z,6.03
2022-09-06T01:55:55.602Z,6.80
2022-09-06T01:58:49.915Z,7.40
2022-09-06T02:01:23.992Z,7.10
2022-09-06T02:04:00.610Z,7.13
2022-09-06T02:06:30.953Z,7.53
2022-09-06T02:09:05.094Z,6.83
2022-09-06T02:11:38.253Z,6.95
2022-09-06T02:14:12.033Z,6.37
2022-09-06T02:16:43.162Z,6.93
2022-09-06T02:19:16.031Z,7.10
2022-09-06T02:21:46.553Z,6.67
2022-09-06T02:24:20.651Z,6.80
2022-09-06T02:26:48.953Z,6.13
2022-09-06T02:29:18.153Z,7.00
2022-09-06T02:31:53.368Z,6.90
2022-09-06T02:34:21.964Z,7.07
2022-09-06T02:36:50.009Z,7.30
2022-09-06T02:39:17.576Z,7.00
2022-09-06T02:41:47.859Z,7.80
2022-09-06T02:44:16.181Z,6.37
2022-09-06T02:46:43.664Z,6.30
2022-09-06T02:49:12.458Z,5.60
2022-09-06T02:51:40.750Z,7.17
2022-09-06T02:54:08.664Z,6.37
2022-09-06T02:56:36.688Z,6.70
2022-09-06T02:59:05.493Z,6.07
2022-09-06T03:01:33.091Z,6.27
2022-09-06T03:04:00.766Z,6.07
2022-09-06T03:06:29.863Z,6.70
2022-09-06T03:08:57.460Z,7.00
2022-09-06T03:11:24.969Z,6.70
2022-09-06T03:13:52.628Z,7.20
2022-09-06T03:16:20.789Z,6.43
2022-09-06T03:18:48.302Z,6.43
2022-09-06T03:21:15.817Z,7.00
2022-09-06T03:23:45.759Z,6.25
2022-09-06T03:26:13.273Z,6.83
2022-09-06T03:28:40.844Z,6.40
2022-09-06T03:31:08.410Z,7.07
2022-09-06T03:33:36.420Z,5.80
2022-09-06T03:36:05.164Z,6.27
2022-09-06T03:38:32.664Z,6.60
2022-09-06T03:41:01.549Z,6.43
2022-09-06T03:43:29.777Z,6.23
2022-09-06T03:45:58.090Z,5.33
2022-09-06T03:48:27.253Z,5.87
2022-09-06T03:50:56.861Z,6.03
2022-09-06T03:53:26.420Z,6.50
2022-09-06T03:55:55.576Z,6.60
2022-09-06T03:58:26.420Z,5.70
2022-09-06T04:01:05.365Z,6.90
2022-09-06T04:03:33.724Z,6.70
2022-09-06T04:06:01.377Z,6.07
2022-09-06T04:08:29.133Z,5.13
2022-09-06T04:10:58.056Z,6.10
2022-09-06T04:13:28.387Z,6.40
2022-09-06T04:15:56.449Z,6.70
2022-09-06T04:18:25.239Z,5.57
2022-09-06T04:20:55.846Z,5.97
2022-09-06T04:23:23.816Z,6.37
2022-09-06T04:25:53.643Z,6.27
2022-09-06T04:28:22.479Z,6.57
2022-09-06T04:30:54.974Z,6.20
2022-09-06T04:33:25.724Z,6.00
2022-09-06T04:35:54.252Z,6.37
2022-09-06T04:38:21.861Z,5.80
2022-09-06T04:40:49.684Z,6.30
2022-09-06T04:43:17.365Z,6.70
2022-09-06T04:45:45.314Z,5.23
2022-09-06T04:48:14.372Z,6.60
2022-09-06T04:50:41.954Z,6.00
2022-09-06T04:53:10.872Z,6.00
2022-09-06T04:55:39.202Z,5.63
2022-09-06T04:58:07.045Z,5.87
2022-09-06T05:00:35.761Z,6.00
2022-09-06T05:03:03.290Z,5.83
2022-09-06T05:05:32.146Z,5.88
2022-09-06T05:07:59.683Z,6.50
2022-09-06T05:10:27.712Z,5.37
2022-09-06T05:12:55.774Z,5.20
2022-09-06T05:15:25.162Z,5.60
2022-09-06T05:17:52.708Z,6.70
2022-09-06T05:20:20.221Z,5.40
2022-09-06T05:22:54.681Z,5.67
2022-09-06T05:25:22.419Z,5.40
2022-09-06T05:27:49.976Z,4.80
2022-09-06T05:30:18.458Z,4.90
2022-09-06T05:32:46.158Z,5.50
2022-09-06T05:35:13.696Z,4.90
2022-09-06T05:37:41.503Z,5.63
2022-09-06T05:40:11.524Z,5.90
2022-09-06T05:42:40.964Z,4.80
2022-09-06T05:45:09.285Z,4.67
2022-09-06T05:47:36.832Z,5.47
2022-09-06T05:50:06.896Z,5.30
2022-09-06T05:52:35.036Z,5.97
2022-09-06T05:55:03.037Z,5.67
2022-09-06T05:57:31.855Z,5.30
2022-09-06T05:59:59.817Z,5.23
2022-09-06T06:02:27.424Z,5.90
2022-09-06T06:04:55.507Z,5.10
2022-09-06T06:07:23.018Z,4.83
2022-09-06T06:09:50.499Z,6.03
2022-09-06T06:12:18.056Z,5.27
2022-09-06T06:14:46.868Z,5.10
2022-09-06T06:17:14.361Z,4.90
2022-09-06T06:19:41.863Z,5.13
2022-09-06T06:22:09.463Z,6.10
2022-09-06T06:24:36.964Z,6.30
2022-09-06T06:27:04.771Z,5.03
2022-09-06T06:29:32.382Z,5.27
2022-09-06T06:32:01.301Z,5.90
2022-09-06T06:34:28.814Z,5.10
2022-09-06T06:36:56.387Z,5.10
2022-09-06T06:39:23.936Z,5.50
2022-09-06T06:41:51.707Z,4.50
2022-09-06T06:44:32.526Z,5.03
2022-09-06T06:47:02.576Z,4.80
2022-09-06T06:49:30.285Z,5.00
2022-09-06T06:51:57.776Z,5.80
2022-09-06T06:54:25.378Z,6.33
2022-09-06T06:56:52.860Z,6.30
2022-09-06T06:59:20.564Z,6.20
2022-09-06T07:01:49.889Z,6.17
2022-09-06T07:04:19.050Z,5.40
2022-09-06T07:12:25.905Z,6.43
2022-09-06T07:14:53.618Z,6.80
2022-09-06T07:17:21.064Z,7.80
2022-09-06T07:22:38.557Z,6.30
2022-09-06T07:25:07.405Z,6.17
2022-09-06T07:27:50.761Z,6.23
2022-09-06T07:30:19.765Z,5.13
2022-09-06T07:32:47.472Z,5.70
2022-09-06T07:35:16.549Z,6.67
2022-09-06T07:37:44.056Z,7.20
2022-09-06T07:40:12.285Z,6.00
2022-09-06T07:42:39.860Z,5.67
2022-09-06T07:45:08.300Z,5.70
2022-09-06T07:53:15.297Z,5.97
2022-09-06T07:55:45.170Z,5.83
2022-09-06T07:58:12.703Z,6.10
2022-09-06T08:00:41.132Z,5.60
2022-09-06T08:03:08.919Z,6.17
2022-09-06T08:11:13.528Z,5.47
2022-09-06T08:13:42.143Z,5.77
2022-09-06T08:16:11.284Z,5.17
2022-09-06T08:18:39.227Z,5.00
2022-09-06T08:21:12.663Z,5.37
2022-09-06T08:23:43.047Z,6.20
2022-09-06T08:26:10.777Z,4.47
2022-09-06T08:28:38.855Z,4.80
2022-09-06T08:31:07.603Z,5.37
2022-09-06T08:33:35.372Z,5.13
2022-09-06T08:36:03.032Z,5.07
2022-09-06T08:38:32.071Z,5.63
2022-09-06T08:41:09.205Z,5.40
2022-09-06T08:43:37.858Z,5.70
2022-09-06T08:46:07.986Z,4.80
2022-09-06T08:48:39.629Z,5.93
2022-09-06T08:51:38.743Z,5.50
2022-09-06T08:54:16.577Z,5.57
2022-09-06T08:57:02.027Z,4.97
2022-09-06T08:59:32.495Z,4.50
2022-09-06T09:02:06.847Z,4.90
2022-09-06T09:04:39.875Z,5.40
2022-09-06T09:07:20.268Z,5.47
2022-09-06T09:09:50.840Z,4.90
2022-09-06T09:12:24.183Z,5.10
2022-09-06T09:14:55.312Z,5.60
2022-09-06T09:17:28.528Z,5.20
2022-09-06T09:19:56.379Z,5.40
2022-09-06T09:22:25.601Z,4.90
2022-09-06T09:24:54.832Z,5.17
2022-09-06T09:27:25.157Z,5.17
2022-09-06T09:32:47.534Z,4.60
2022-09-06T09:35:24.443Z,5.40
2022-09-06T09:38:07.785Z,5.10
2022-09-06T09:40:41.825Z,4.87
2022-09-06T09:43:22.937Z,4.87
2022-09-06T09:46:11.965Z,4.67
2022-09-06T09:48:40.760Z,4.70
2022-09-06T09:51:26.245Z,4.60
2022-09-06T09:53:56.120Z,4.27
2022-09-06T09:56:30.737Z,4.70
2022-09-06T09:58:59.664Z,4.67
2022-09-06T10:01:30.478Z,5.00
2022-09-06T10:07:10.499Z,3.73
2022-09-06T10:09:40.422Z,3.90
2022-09-06T10:12:09.338Z,3.97
2022-09-06T10:14:42.855Z,4.00
2022-09-06T10:17:19.787Z,4.67
2022-09-06T10:19:48.668Z,3.73
2022-09-06T10:22:24.698Z,4.00
2022-09-06T10:25:08.952Z,3.90
2022-09-06T10:27:55.728Z,3.87
2022-09-06T10:30:35.505Z,4.03
2022-09-06T10:33:07.735Z,3.30
2022-09-06T10:35:38.753Z,3.10
2022-09-06T10:38:21.919Z,4.00
2022-09-06T10:41:00.928Z,3.20
2022-09-06T10:43:40.525Z,3.20
2022-09-06T10:46:15.674Z,3.07
2022-09-06T10:48:46.477Z,3.00
2022-09-06T10:51:22.851Z,2.83
2022-09-06T10:53:55.586Z,3.53
2022-09-06T10:56:27.869Z,3.07
2022-09-06T11:02:03.649Z,3.73
2022-09-06T11:07:29.524Z,3.27
2022-09-06T11:10:01.517Z,3.97
2022-09-06T11:12:38.532Z,3.70
2022-09-06T11:15:10.807Z,3.60
2022-09-06T11:17:44.128Z,3.17
2022-09-06T11:20:18.852Z,3.10
2022-09-06T11:23:03.028Z,6.27
2022-09-06T11:26:07.246Z,3.50
2022-09-06T11:28:39.021Z,3.20
2022-09-06T11:34:12.059Z,4.20
2022-09-06T11:36:46.108Z,3.70
2022-09-06T11:39:14.861Z,3.87
2022-09-06T11:41:43.534Z,3.47
2022-09-06T11:44:11.803Z,3.60
2022-09-06T11:47:00.086Z,3.47
2022-09-06T11:49:37.216Z,3.67
2022-09-06T11:52:38.158Z,3.80
2022-09-06T11:55:11.346Z,3.80
2022-09-06T11:57:40.559Z,3.90
2022-09-06T12:00:18.880Z,3.47
2022-09-06T12:02:47.843Z,3.85
2022-09-06T12:05:18.786Z,3.77
2022-09-06T12:08:23.815Z,3.73
2022-09-06T12:10:58.405Z,3.63
2022-09-06T12:13:48.229Z,3.50
2022-09-06T12:16:17.448Z,3.80
2022-09-06T12:19:04.547Z,4.03
2022-09-06T12:21:42.530Z,3.95
2022-09-06T12:24:30.826Z,3.83
2022-09-06T12:27:15.615Z,4.07
2022-09-06T12:29:54.544Z,3.43
2022-09-06T12:32:25.996Z,3.97
2022-09-06T12:37:51.826Z,3.47
2022-09-06T12:40:20.871Z,3.70
2022-09-06T12:42:51.066Z,3.90
2022-09-06T12:45:21.981Z,3.20
2022-09-06T12:48:05.281Z,3.85
2022-09-06T12:50:32.827Z,3.90
2022-09-06T12:53:02.516Z,4.27
2022-09-06T12:55:33.105Z,4.40
2022-09-06T12:58:03.432Z,3.90
2022-09-06T13:00:35.203Z,4.13
2022-09-06T13:03:06.909Z,3.60
2022-09-06T13:05:34.439Z,4.30
2022-09-06T13:08:04.105Z,3.63
2022-09-06T13:10:32.006Z,3.67
2022-09-06T13:12:59.900Z,4.30
2022-09-06T13:15:31.114Z,3.93
2022-09-06T13:18:21.193Z,3.87
2022-09-06T13:20:59.737Z,4.10
2022-09-06T13:23:27.352Z,4.30
2022-09-06T13:25:56.230Z,4.07
2022-09-06T13:28:29.463Z,3.87
2022-09-06T13:31:07.966Z,4.73
2022-09-06T13:33:37.692Z,4.17
2022-09-06T13:36:09.284Z,3.87
2022-09-06T13:38:41.969Z,4.00
2022-09-06T13:41:37.282Z,4.55
2022-09-06T13:44:07.908Z,4.60
2022-09-06T13:46:37.052Z,4.30
2022-09-06T13:49:05.639Z,4.43
2022-09-06T13:51:33.950Z,4.40
2022-09-06T13:54:05.797Z,4.17
2022-09-06T13:56:33.292Z,4.90
2022-09-06T13:59:00.896Z,5.67
2022-09-06T14:01:28.640Z,4.80
2022-09-06T14:03:57.516Z,4.80
2022-09-06T14:06:25.017Z,5.57
2022-09-06T14:09:08.623Z,4.70
2022-09-06T14:11:36.689Z,5.63
2022-09-06T14:14:04.625Z,4.80
2022-09-06T14:16:32.530Z,5.33
2022-09-06T14:19:01.339Z,5.40
2022-09-06T14:21:29.005Z,5.40
2022-09-06T14:24:00.843Z,5.27
2022-09-06T14:26:30.987Z,5.67
2022-09-06T14:28:58.456Z,5.13
2022-09-06T14:31:28.140Z,5.03
2022-09-06T14:33:57.066Z,5.20
2022-09-06T14:36:29.165Z,4.63
2022-09-06T14:38:58.397Z,4.70
2022-09-06T14:41:26.646Z,5.03
2022-09-06T14:43:57.050Z,5.20
2022-09-06T14:46:26.047Z,4.87
2022-09-06T14:48:58.695Z,4.50
2022-09-06T14:51:27.680Z,5.07
2022-09-06T14:53:58.076Z,4.90
2022-09-06T14:56:26.159Z,5.00
2022-09-06T14:58:57.243Z,4.50
2022-09-06T15:01:26.953Z,5.80
2022-09-06T15:03:57.035Z,4.77
2022-09-06T15:06:27.672Z,3.97
2022-09-06T15:08:59.094Z,4.60
2022-09-06T15:11:33.267Z,4.17
2022-09-06T15:14:01.912Z,4.72
2022-09-06T15:16:29.856Z,4.00
2022-09-06T15:18:58.074Z,4.87
2022-09-06T15:21:27.053Z,4.13
2022-09-06T15:23:55.568Z,4.10
2022-09-06T15:26:23.081Z,3.87
2022-09-06T15:28:50.873Z,5.37
2022-09-06T15:31:19.515Z,5.03
2022-09-06T15:33:48.772Z,4.70
2022-09-06T15:36:17.199Z,4.10
2022-09-06T15:38:47.970Z,4.80
2022-09-06T15:41:17.837Z,4.20
2022-09-06T15:43:47.805Z,4.00
2022-09-06T15:46:16.467Z,3.90
2022-09-06T15:48:46.070Z,3.90
2022-09-06T15:51:17.077Z,3.50
2022-09-06T15:53:48.876Z,4.60
2022-09-06T15:56:18.412Z,3.58
2022-09-06T15:58:46.874Z,4.20
2022-09-06T16:01:16.260Z,4.13
2022-09-06T16:03:45.992Z,4.40
2022-09-06T16:06:31.663Z,3.83
2022-09-06T16:09:03.350Z,3.67
2022-09-06T16:11:32.567Z,3.57
2022-09-06T16:14:00.055Z,3.47
2022-09-06T16:16:28.371Z,4.05
2022-09-06T16:18:55.980Z,3.43
2022-09-06T16:21:25.711Z,3.97
2022-09-06T16:23:55.209Z,3.70
2022-09-06T16:26:26.194Z,4.50
2022-09-06T16:28:54.525Z,3.80
2022-09-06T16:31:23.373Z,3.60
2022-09-06T16:33:51.413Z,4.30
2022-09-06T16:36:19.737Z,3.67
2022-09-06T16:38:48.476Z,3.63
2022-09-06T16:41:20.217Z,3.95
2022-09-06T16:43:50.250Z,3.73
2022-09-06T16:46:18.305Z,4.20
2022-09-06T16:48:52.014Z,4.90
2022-09-06T16:51:20.865Z,4.10
2022-09-06T16:53:49.469Z,3.57
2022-09-06T16:56:19.136Z,4.13
2022-09-06T16:58:52.760Z,3.87
2022-09-06T17:01:20.447Z,4.40
2022-09-06T17:03:48.248Z,3.87
2022-09-06T17:06:16.401Z,4.03
2022-09-06T17:08:44.380Z,3.90
2022-09-06T17:11:14.597Z,4.50
2022-09-06T17:13:43.007Z,5.43
2022-09-06T17:16:29.914Z,4.10
2022-09-06T17:18:59.015Z,4.60
2022-09-06T17:21:26.624Z,4.10
2022-09-06T17:23:54.202Z,4.10
2022-09-06T17:26:23.313Z,4.70
2022-09-06T17:28:51.274Z,4.07
2022-09-06T17:31:25.528Z,4.03
2022-09-06T17:33:54.016Z,4.40
2022-09-06T17:36:23.609Z,4.30
2022-09-06T17:38:53.616Z,5.07
2022-09-06T17:41:24.170Z,4.17
2022-09-06T17:43:53.699Z,4.43
2022-09-06T17:46:28.362Z,4.00
2022-09-06T17:48:56.651Z,4.67
2022-09-06T17:51:24.944Z,4.90
2022-09-06T17:53:52.780Z,4.63
2022-09-06T17:56:21.605Z,4.70
2022-09-06T17:58:56.567Z,4.53
2022-09-06T18:01:29.253Z,5.20
2022-09-06T18:03:57.364Z,4.60
2022-09-06T18:06:27.765Z,6.50
2022-09-06T18:08:58.033Z,4.47
2022-09-06T18:11:28.741Z,5.80
2022-09-06T18:13:57.710Z,5.77
2022-09-06T18:16:28.100Z,5.23
2022-09-06T18:18:57.129Z,4.67
2022-09-06T18:21:26.494Z,4.30
2022-09-06T18:23:54.912Z,4.70
2022-09-06T18:26:22.877Z,4.60
2022-09-06T18:28:52.858Z,4.50
2022-09-06T18:31:22.494Z,4.37
2022-09-06T18:33:57.985Z,5.40
2022-09-06T18:36:31.195Z,4.37
2022-09-06T18:39:02.646Z,5.40
2022-09-06T18:41:48.765Z,4.87
2022-09-06T18:44:19.148Z,4.60
2022-09-06T18:46:47.192Z,5.20
2022-09-06T18:49:17.360Z,4.97
2022-09-06T18:51:45.637Z,5.53
2022-09-06T18:54:13.505Z,5.30
2022-09-06T18:56:41.645Z,6.00
2022-09-06T18:59:10.712Z,4.30
2022-09-06T19:01:38.561Z,4.57
2022-09-06T19:04:07.712Z,4.57
2022-09-06T19:06:38.697Z,5.13
2022-09-06T19:09:08.262Z,5.43
2022-09-06T19:11:36.698Z,5.40
2022-09-06T19:14:05.704Z,4.70
2022-09-06T19:16:33.600Z,5.23
2022-09-06T19:19:04.998Z,4.73
2022-09-06T19:21:36.739Z,4.83
2022-09-06T19:24:11.829Z,4.70
2022-09-06T19:26:42.589Z,6.30
2022-09-06T19:29:14.468Z,5.10
2022-09-06T19:31:42.525Z,5.43
2022-09-06T19:34:12.074Z,4.80
2022-09-06T19:36:39.627Z,5.70
2022-09-06T19:39:09.453Z,4.70
2022-09-06T19:41:41.646Z,5.30
2022-09-06T19:44:12.199Z,4.90
2022-09-06T19:46:45.061Z,5.20
2022-09-06T19:49:22.208Z,4.70
2022-09-06T19:51:52.941Z,4.80
2022-09-06T19:54:20.875Z,5.63
2022-09-06T19:56:49.813Z,7.00
2022-09-06T19:59:25.184Z,4.90
2022-09-06T20:01:52.729Z,5.17
2022-09-06T20:04:20.897Z,5.13
2022-09-06T20:06:48.487Z,5.60
2022-09-06T20:09:16.447Z,5.57
2022-09-06T20:11:44.421Z,5.67
2022-09-06T20:14:14.164Z,5.10
2022-09-06T20:16:42.856Z,4.83
2022-09-06T20:19:12.256Z,5.53
2022-09-06T20:21:39.924Z,5.87
2022-09-06T20:24:07.783Z,5.47
2022-09-06T20:26:35.442Z,5.57
2022-09-06T20:29:04.584Z,5.57
2022-09-06T20:31:34.887Z,5.20
2022-09-06T20:34:04.195Z,5.60
2022-09-06T20:36:31.750Z,4.78
2022-09-06T20:38:59.340Z,5.50
2022-09-06T20:41:28.077Z,5.53
2022-09-06T20:43:57.470Z,5.30
2022-09-06T20:46:26.585Z,4.73
2022-09-06T20:48:57.668Z,4.63
2022-09-06T20:51:26.145Z,5.10
2022-09-06T20:53:55.740Z,5.97
2022-09-06T20:56:25.413Z,5.23
2022-09-06T20:58:55.027Z,6.20
2022-09-06T21:01:24.502Z,5.10
2022-09-06T21:03:55.652Z,5.17
2022-09-06T21:06:24.881Z,4.43
2022-09-06T21:08:52.797Z,5.53
2022-09-06T21:11:20.746Z,5.17
2022-09-06T21:13:49.451Z,5.67
2022-09-06T21:16:21.855Z,5.00
2022-09-06T21:18:52.027Z,5.37
2022-09-06T21:21:21.430Z,5.10
2022-09-06T21:23:49.755Z,5.63
2022-09-06T21:26:17.897Z,5.40
2022-09-06T21:28:47.141Z,4.50
2022-09-06T21:31:16.721Z,5.40
2022-09-06T21:33:46.176Z,5.50
2022-09-06T21:36:15.183Z,5.43
2022-09-06T21:38:46.310Z,4.70
2022-09-06T21:41:15.164Z,6.00
2022-09-06T21:43:43.355Z,6.00
2022-09-06T21:46:14.232Z,5.63
2022-09-06T21:48:43.772Z,4.97
2022-09-06T21:51:14.105Z,5.50
2022-09-06T21:53:44.486Z,5.80
2022-09-06T21:56:13.262Z,5.30
2022-09-06T21:58:41.099Z,5.00
2022-09-06T22:01:09.142Z,5.80
2022-09-06T22:03:40.155Z,6.40
2022-09-06T22:06:11.945Z,5.47
2022-09-06T22:08:41.745Z,5.83
2022-09-06T22:11:12.574Z,5.50
2022-09-06T22:13:40.418Z,5.10
2022-09-06T22:16:08.838Z,5.10
2022-09-06T22:18:37.106Z,4.83
2022-09-06T22:21:06.526Z,5.57
2022-09-06T22:23:34.375Z,5.57
2022-09-06T22:26:03.836Z,5.70
2022-09-06T22:28:32.871Z,5.77
2022-09-06T22:31:00.750Z,6.63
2022-09-06T22:33:28.837Z,5.47
2022-09-06T22:35:56.364Z,5.17
2022-09-06T22:38:23.934Z,6.27
2022-09-06T22:40:51.505Z,6.77
2022-09-06T22:43:19.065Z,6.30
2022-09-06T22:45:51.844Z,5.43
2022-09-06T22:48:20.065Z,6.00
2022-09-06T22:50:48.324Z,6.07
2022-09-06T22:53:15.893Z,6.00
2022-09-06T22:55:47.641Z,6.80
2022-09-06T22:58:16.018Z,5.67
2022-09-06T23:00:43.562Z,5.87
2022-09-06T23:03:12.454Z,6.22
2022-09-06T23:05:39.984Z,6.10
2022-09-06T23:08:07.718Z,5.80
2022-09-06T23:10:40.515Z,6.07
2022-09-06T23:13:08.800Z,5.07
2022-09-06T23:15:36.872Z,5.97
2022-09-06T23:18:04.947Z,5.83
2022-09-06T23:20:35.955Z,6.10
2022-09-06T23:23:03.484Z,6.60
2022-09-06T23:25:31.098Z,6.47
2022-09-06T23:27:59.447Z,5.30
2022-09-06T23:30:27.048Z,6.10
2022-09-06T23:32:56.296Z,7.20
2022-09-06T23:35:24.013Z,7.03
2022-09-06T23:37:53.387Z,6.20
2022-09-06T23:40:21.265Z,5.03
2022-09-06T23:42:48.779Z,6.23
2022-09-06T23:45:16.305Z,5.93
2022-09-06T23:47:43.765Z,6.57
2022-09-06T23:50:11.432Z,5.85
2022-09-06T23:52:38.927Z,5.73
2022-09-06T23:55:09.264Z,6.80
2022-09-06T23:57:36.770Z,6.67
